createdAt,value
2022-09-04T00:01:11.432Z,21.80
2022-09-04T00:03:50.974Z,21.80
2022-09-04T00:06:25.564Z,21.80
2022-09-04T00:09:04.666Z,21.80
2022-09-04T00:11:44.620Z,21.80
2022-09-04T00:14:17.620Z,21.80
2022-09-04T00:16:50.973Z,21.70
2022-09-04T00:19:26.268Z,21.70
2022-09-04T00:21:57.749Z,21.70
2022-09-04T00:24:31.084Z,21.70
2022-09-04T00:27:03.667Z,21.60
2022-09-04T00:29:36.386Z,21.60
2022-09-04T00:32:13.343Z,21.70
2022-09-04T00:34:55.442Z,21.70
2022-09-04T00:37:27.452Z,21.60
2022-09-04T00:40:01.487Z,21.40
2022-09-04T00:42:58.664Z,21.20
2022-09-04T00:45:35.315Z,21.30
2022-09-04T00:48:31.882Z,21.10
2022-09-04T00:51:16.738Z,21.00
2022-09-04T00:54:01.277Z,21.10
2022-09-04T00:57:10.083Z,21.10
2022-09-04T01:00:08.357Z,21.20
2022-09-04T01:03:00.473Z,21.10
2022-09-04T01:05:45.512Z,21.10
2022-09-04T01:08:23.525Z,21.20
2022-09-04T01:11:01.032Z,21.30
2022-09-04T01:13:38.620Z,21.30
2022-09-04T01:16:11.105Z,21.30
2022-09-04T01:18:46.056Z,21.20
2022-09-04T01:21:35.720Z,21.10
2022-09-04T01:25:16.877Z,21.30
2022-09-04T01:27:49.793Z,21.30
2022-09-04T01:30:17.867Z,21.10
2022-09-04T01:32:50.389Z,21.00
2022-09-04T01:35:24.594Z,21.00
2022-09-04T01:37:56.208Z,21.00
2022-09-04T01:40:35.322Z,21.00
2022-09-04T01:43:07.253Z,20.80
2022-09-04T01:45:43.169Z,20.80
2022-09-04T01:48:12.632Z,20.80
2022-09-04T01:50:42.964Z,20.90
2022-09-04T01:53:11.961Z,20.90
2022-09-04T01:55:47.754Z,20.80
2022-09-04T01:58:35.667Z,20.70
2022-09-04T02:02:55.310Z,20.80
2022-09-04T02:05:29.339Z,20.80
2022-09-04T02:08:04.345Z,20.70
2022-09-04T02:10:35.023Z,20.60
2022-09-04T02:13:15.370Z,20.50
2022-09-04T02:15:54.309Z,20.60
2022-09-04T02:18:36.116Z,20.60
2022-09-04T02:21:07.779Z,20.50
2022-09-04T02:25:28.533Z,20.40
2022-09-04T02:28:10.264Z,20.40
2022-09-04T02:30:39.728Z,20.40
2022-09-04T02:33:15.250Z,20.30
2022-09-04T02:35:45.911Z,20.20
2022-09-04T02:38:23.442Z,20.20
2022-09-04T02:40:56.061Z,20.30
2022-09-04T02:43:52.283Z,20.30
2022-09-04T02:47:36.825Z,20.30
2022-09-04T02:50:12.367Z,20.20
2022-09-04T02:52:52.537Z,20.10
2022-09-04T02:55:30.676Z,19.90
2022-09-04T02:58:06.179Z,19.90
2022-09-04T03:00:44.093Z,20.00
2022-09-04T03:03:15.292Z,19.80
2022-09-04T03:05:47.997Z,19.80
2022-09-04T03:08:16.949Z,19.90
2022-09-04T03:10:49.312Z,19.90
2022-09-04T03:13:24.157Z,19.80
2022-09-04T03:15:54.798Z,19.80
2022-09-04T03:18:28.362Z,19.80
2022-09-04T03:21:01.668Z,19.70
2022-09-04T03:23:38.722Z,19.90
2022-09-04T03:26:16.900Z,20.00
2022-09-04T03:28:50.960Z,20.00
2022-09-04T03:31:28.728Z,19.90
2022-09-04T03:34:01.355Z,19.60
2022-09-04T03:36:32.636Z,19.60
2022-09-04T03:39:04.514Z,19.80
2022-09-04T03:41:35.067Z,19.80
2022-09-04T03:44:07.303Z,19.90
2022-09-04T03:46:48.557Z,20.10
2022-09-04T03:49:27.190Z,19.90
2022-09-04T03:51:59.482Z,19.70
2022-09-04T03:54:38.240Z,19.70
2022-09-04T03:57:19.980Z,19.90
2022-09-04T04:00:00.548Z,19.70
2022-09-04T04:02:41.275Z,19.80
2022-09-04T04:05:31.887Z,20.00
2022-09-04T04:08:12.708Z,19.80
2022-09-04T04:10:52.715Z,19.80
2022-09-04T04:13:36.319Z,19.80
2022-09-04T04:16:24.687Z,19.90
2022-09-04T04:19:12.436Z,19.90
2022-09-04T04:21:56.067Z,19.90
2022-09-04T04:24:43.490Z,19.70
2022-09-04T04:27:28.701Z,19.70
2022-09-04T04:30:05.161Z,19.70
2022-09-04T04:32:54.156Z,19.70
2022-09-04T04:35:29.655Z,19.50
2022-09-04T04:38:11.667Z,19.60
2022-09-04T04:41:04.060Z,19.70
2022-09-04T04:43:41.331Z,19.50
2022-09-04T04:46:17.211Z,19.30
2022-09-04T04:49:13.028Z,19.40
2022-09-04T04:51:57.256Z,19.60
2022-09-04T04:54:51.366Z,19.70
2022-09-04T04:57:31.801Z,19.70
2022-09-04T05:00:08.238Z,19.70
2022-09-04T05:02:42.581Z,19.90
2022-09-04T05:05:16.122Z,19.70
2022-09-04T05:07:52.421Z,19.70
2022-09-04T05:10:29.872Z,19.70
2022-09-04T05:13:09.274Z,19.60
2022-09-04T05:16:05.019Z,19.60
2022-09-04T05:18:35.285Z,19.80
2022-09-04T05:21:12.773Z,20.10
2022-09-04T05:23:49.017Z,20.10
2022-09-04T05:26:26.779Z,20.10
2022-09-04T05:29:01.926Z,20.40
2022-09-04T05:31:39.020Z,20.30
2022-09-04T05:34:12.722Z,20.30
2022-09-04T05:36:45.898Z,20.30
2022-09-04T05:39:22.655Z,20.20
2022-09-04T05:42:09.888Z,20.50
2022-09-04T05:44:48.878Z,20.90
2022-09-04T05:47:30.556Z,21.30
2022-09-04T05:50:35.702Z,21.60
2022-09-04T05:53:20.051Z,21.70
2022-09-04T05:56:03.802Z,21.80
2022-09-04T05:58:55.508Z,22.00
2022-09-04T06:01:40.896Z,22.40
2022-09-04T06:04:32.405Z,22.70
2022-09-04T06:07:06.852Z,23.40
2022-09-04T06:09:46.496Z,24.00
2022-09-04T06:12:31.865Z,24.60
2022-09-04T06:15:22.944Z,25.50
2022-09-04T06:18:10.128Z,26.40
2022-09-04T06:21:01.645Z,27.00
2022-09-04T06:23:40.361Z,28.10
2022-09-04T06:26:16.775Z,28.40
2022-09-04T06:29:25.903Z,28.00
2022-09-04T06:32:21.131Z,27.60
2022-09-04T06:35:18.027Z,27.20
2022-09-04T06:38:00.450Z,27.00
2022-09-04T06:40:44.925Z,26.60
2022-09-04T06:43:22.827Z,27.30
2022-09-04T06:46:07.093Z,28.60
2022-09-04T06:48:49.965Z,29.10
2022-09-04T06:51:30.968Z,29.60
2022-09-04T06:54:11.634Z,30.00
2022-09-04T06:56:55.876Z,29.90
2022-09-04T06:59:43.733Z,29.00
2022-09-04T07:02:24.953Z,29.20
2022-09-04T07:05:05.800Z,29.60
2022-09-04T07:07:41.704Z,29.70
2022-09-04T07:10:12.253Z,30.70
2022-09-04T07:13:10.457Z,31.70
2022-09-04T07:15:50.059Z,32.60
2022-09-04T07:18:34.196Z,32.80
2022-09-04T07:21:14.775Z,33.70
2022-09-04T07:23:50.870Z,34.10
2022-09-04T07:26:26.900Z,34.40
2022-09-04T07:29:23.771Z,34.10
2022-09-04T07:32:01.297Z,33.90
2022-09-04T07:34:39.602Z,34.60
2022-09-04T07:37:24.979Z,35.60
2022-09-04T07:41:31.714Z,36.30
2022-09-04T07:44:06.560Z,37.90
2022-09-04T07:46:44.669Z,37.90
2022-09-04T07:49:18.449Z,37.60
2022-09-04T07:52:00.889Z,36.90
2022-09-04T07:55:04.522Z,35.60
2022-09-04T07:58:11.975Z,33.90
2022-09-04T08:00:51.082Z,32.70
2022-09-04T08:03:32.496Z,31.50
2022-09-04T08:06:11.697Z,31.40
2022-09-04T08:09:04.038Z,31.60
2022-09-04T08:11:49.559Z,31.80
2022-09-04T08:14:26.224Z,31.70
2022-09-04T08:17:20.972Z,31.90
2022-09-04T08:19:58.465Z,31.90
2022-09-04T08:22:36.019Z,31.60
2022-09-04T08:25:17.165Z,32.00
2022-09-04T08:28:17.526Z,32.20
2022-09-04T08:30:54.891Z,32.10
2022-09-04T08:34:03.302Z,32.50
2022-09-04T08:36:41.822Z,32.40
2022-09-04T08:39:14.034Z,32.40
2022-09-04T08:42:19.103Z,32.20
2022-09-04T08:45:16.077Z,32.40
2022-09-04T08:48:09.533Z,32.30
2022-09-04T08:51:20.184Z,32.90
2022-09-04T08:54:41.517Z,32.90
2022-09-04T08:57:31.230Z,32.90
2022-09-04T09:00:10.510Z,33.00
2022-09-04T09:03:11.804Z,33.50
2022-09-04T09:06:27.409Z,34.20
2022-09-04T09:09:25.422Z,34.50
2022-09-04T09:12:41.262Z,35.00
2022-09-04T09:15:42.146Z,35.00
2022-09-04T09:18:33.523Z,35.80
2022-09-04T09:21:07.888Z,36.30
2022-09-04T09:24:06.723Z,36.40
2022-09-04T09:26:38.847Z,37.20
2022-09-04T09:29:31.390Z,37.70
2022-09-04T09:32:41.236Z,37.70
2022-09-04T09:35:51.637Z,37.90
2022-09-04T09:38:45.842Z,37.90
2022-09-04T09:41:51.955Z,37.60
2022-09-04T09:44:44.439Z,37.50
2022-09-04T09:47:55.580Z,37.30
2022-09-04T09:50:38.650Z,38.00
2022-09-04T09:53:38.025Z,38.00
2022-09-04T09:56:41.112Z,38.60
2022-09-04T09:59:56.231Z,38.30
2022-09-04T10:02:52.378Z,38.80
2022-09-04T10:05:41.065Z,39.30
2022-09-04T10:08:42.145Z,40.00
2022-09-04T10:11:27.943Z,41.70
2022-09-04T10:14:34.532Z,42.30
2022-09-04T10:17:35.577Z,42.50
2022-09-04T10:20:55.336Z,41.90
2022-09-04T10:23:52.994Z,43.10
2022-09-04T10:26:44.669Z,43.10
2022-09-04T10:29:32.468Z,42.90
2022-09-04T10:32:30.002Z,42.10
2022-09-04T10:35:25.417Z,41.40
2022-09-04T10:38:32.050Z,41.90
2022-09-04T10:41:30.872Z,42.40
2022-09-04T10:44:23.237Z,42.60
2022-09-04T10:47:03.267Z,43.00
2022-09-04T10:49:56.075Z,42.30
2022-09-04T10:52:41.297Z,42.50
2022-09-04T10:55:43.966Z,42.80
2022-09-04T10:58:39.809Z,43.30
2022-09-04T11:01:43.316Z,42.80
2022-09-04T11:04:45.728Z,41.70
2022-09-04T11:07:30.329Z,41.40
2022-09-04T11:10:27.160Z,41.40
2022-09-04T11:13:42.529Z,40.80
2022-09-04T11:16:32.502Z,41.00
2022-09-04T11:19:20.017Z,41.10
2022-09-04T11:22:20.390Z,40.20
2022-09-04T11:25:39.267Z,40.20
2022-09-04T11:28:41.384Z,41.10
2022-09-04T11:31:29.874Z,42.30
2022-09-04T11:34:36.075Z,43.10
2022-09-04T11:37:29.758Z,42.80
2022-09-04T11:40:39.126Z,42.10
2022-09-04T11:43:23.758Z,40.50
2022-09-04T11:46:15.382Z,39.70
2022-09-04T11:49:26.907Z,38.90
2022-09-04T11:52:15.536Z,37.80
2022-09-04T11:55:14.221Z,38.10
2022-09-04T11:58:03.541Z,37.80
2022-09-04T12:00:40.961Z,37.40
2022-09-04T12:03:50.571Z,36.40
2022-09-04T12:06:36.479Z,35.90
2022-09-04T12:09:46.959Z,36.30
2022-09-04T12:12:43.090Z,37.50
2022-09-04T12:15:30.304Z,38.20
2022-09-04T12:18:37.934Z,38.30
2022-09-04T12:21:53.060Z,37.90
2022-09-04T12:25:12.060Z,36.40
2022-09-04T12:28:08.876Z,34.50
2022-09-04T12:30:50.806Z,35.00
2022-09-04T12:33:36.434Z,34.80
2022-09-04T12:36:33.588Z,34.50
2022-09-04T12:39:28.615Z,33.80
2022-09-04T12:42:04.928Z,34.00
2022-09-04T12:44:51.048Z,34.20
2022-09-04T12:47:33.177Z,34.40
2022-09-04T12:50:22.809Z,34.10
2022-09-04T12:53:11.044Z,33.70
2022-09-04T12:55:45.693Z,34.30
2022-09-04T12:58:26.201Z,35.00
2022-09-04T13:01:02.135Z,35.20
2022-09-04T13:03:40.120Z,35.40
2022-09-04T13:06:18.936Z,35.70
2022-09-04T13:09:04.519Z,35.90
2022-09-04T13:11:49.094Z,35.50
2022-09-04T13:14:42.178Z,34.40
2022-09-04T13:17:20.009Z,35.00
2022-09-04T13:19:55.249Z,36.20
2022-09-04T13:22:31.074Z,36.10
2022-09-04T13:25:10.465Z,36.70
2022-09-04T13:27:59.837Z,37.20
2022-09-04T13:30:30.900Z,37.60
2022-09-04T13:33:20.851Z,38.00
2022-09-04T13:36:11.238Z,38.10
2022-09-04T13:39:06.893Z,38.50
2022-09-04T13:41:59.993Z,38.10
2022-09-04T13:44:54.398Z,37.50
2022-09-04T13:47:32.724Z,37.50
2022-09-04T13:50:09.898Z,37.60
2022-09-04T13:52:42.473Z,38.00
2022-09-04T13:55:16.697Z,37.50
2022-09-04T13:57:48.560Z,37.30
2022-09-04T14:00:17.181Z,37.00
2022-09-04T14:02:47.644Z,36.70
2022-09-04T14:05:20.780Z,36.40
2022-09-04T14:07:50.763Z,36.70
2022-09-04T14:10:22.295Z,36.90
2022-09-04T14:13:10.160Z,36.50
2022-09-04T14:16:01.939Z,36.00
2022-09-04T14:18:57.874Z,36.40
2022-09-04T14:21:37.508Z,36.10
2022-09-04T14:24:18.334Z,36.30
2022-09-04T14:26:52.536Z,36.10
2022-09-04T14:29:29.179Z,35.60
2022-09-04T14:32:10.966Z,35.70
2022-09-04T14:34:50.245Z,35.80
2022-09-04T14:37:36.133Z,35.80
2022-09-04T14:40:10.037Z,36.10
2022-09-04T14:42:48.139Z,35.80
2022-09-04T14:45:28.340Z,35.50
2022-09-04T14:48:00.327Z,35.60
2022-09-04T14:50:31.273Z,35.70
2022-09-04T14:53:06.922Z,35.60
2022-09-04T14:55:40.159Z,36.00
2022-09-04T14:58:19.552Z,36.20
2022-09-04T15:01:00.776Z,36.40
2022-09-04T15:03:34.705Z,36.70
2022-09-04T15:06:12.499Z,36.40
2022-09-04T15:08:42.277Z,35.60
2022-09-04T15:11:31.421Z,35.00
2022-09-04T15:14:06.642Z,34.50
2022-09-04T15:16:49.418Z,34.30
2022-09-04T15:19:45.540Z,33.60
2022-09-04T15:22:23.487Z,33.30
2022-09-04T15:24:58.623Z,33.00
2022-09-04T15:27:32.462Z,32.90
2022-09-04T15:30:06.694Z,32.80
2022-09-04T15:32:36.873Z,33.00
2022-09-04T15:35:14.324Z,33.10
2022-09-04T15:37:48.327Z,33.00
2022-09-04T15:40:27.978Z,33.00
2022-09-04T15:43:08.117Z,33.00
2022-09-04T15:45:43.140Z,32.80
2022-09-04T15:48:25.611Z,32.70
2022-09-04T15:51:05.196Z,32.70
2022-09-04T15:53:37.098Z,32.60
2022-09-04T15:56:09.565Z,32.50
2022-09-04T15:58:46.477Z,32.60
2022-09-04T16:01:17.484Z,32.30
2022-09-04T16:04:01.665Z,32.30
2022-09-04T16:06:32.961Z,32.40
2022-09-04T16:09:06.486Z,32.40
2022-09-04T16:11:38.394Z,32.00
2022-09-04T16:14:08.751Z,31.60
2022-09-04T16:16:42.556Z,31.50
2022-09-04T16:19:27.057Z,31.70
2022-09-04T16:22:05.043Z,31.50
2022-09-04T16:24:40.967Z,31.40
2022-09-04T16:27:12.510Z,31.40
2022-09-04T16:29:45.860Z,31.10
2022-09-04T16:32:20.581Z,31.10
2022-09-04T16:34:52.013Z,31.00
2022-09-04T16:37:25.720Z,31.00
2022-09-04T16:40:12.976Z,31.00
2022-09-04T16:42:47.798Z,31.00
2022-09-04T16:45:20.264Z,30.80
2022-09-04T16:47:56.860Z,30.70
2022-09-04T16:50:35.979Z,30.60
2022-09-04T16:53:14.179Z,30.50
2022-09-04T16:55:52.696Z,30.30
2022-09-04T16:58:40.162Z,30.30
2022-09-04T17:01:15.648Z,30.30
2022-09-04T17:04:12.629Z,30.20
2022-09-04T17:06:47.563Z,30.20
2022-09-04T17:09:21.321Z,30.10
2022-09-04T17:11:55.878Z,30.20
2022-09-04T17:14:30.575Z,30.20
2022-09-04T17:17:29.644Z,30.50
2022-09-04T17:20:09.676Z,30.70
2022-09-04T17:29:03.639Z,30.90
2022-09-04T17:29:11.929Z,31.30
2022-09-04T17:29:18.364Z,31.50
2022-09-04T17:31:36.196Z,31.70
2022-09-04T17:40:12.362Z,31.60
2022-09-04T17:40:42.299Z,31.40
2022-09-04T17:40:50.439Z,31.60
2022-09-04T17:43:23.677Z,31.00
2022-09-04T17:46:05.001Z,30.90
2022-09-04T17:48:38.135Z,30.80
2022-09-04T17:51:07.735Z,30.70
2022-09-04T17:53:38.636Z,30.50
2022-09-04T17:56:13.684Z,30.40
2022-09-04T17:58:46.187Z,30.20
2022-09-04T18:01:20.754Z,30.10
2022-09-04T18:04:20.578Z,30.00
2022-09-04T18:06:55.768Z,29.80
2022-09-04T18:09:31.956Z,29.60
2022-09-04T18:12:11.115Z,29.40
2022-09-04T18:14:47.580Z,29.20
2022-09-04T18:17:44.774Z,29.00
2022-09-04T18:20:22.221Z,28.90
2022-09-04T18:23:15.092Z,28.80
2022-09-04T18:25:50.894Z,28.70
2022-09-04T18:31:11.255Z,28.50
2022-09-04T18:37:17.802Z,28.20
2022-09-04T18:37:19.546Z,28.40
2022-09-04T18:38:11.314Z,28.00
2022-09-04T18:43:18.210Z,27.80
2022-09-04T18:50:28.448Z,27.60
2022-09-04T18:50:31.550Z,27.70
2022-09-04T18:50:50.533Z,27.40
2022-09-04T18:52:15.744Z,27.30
2022-09-04T18:54:49.285Z,27.10
2022-09-04T18:57:27.373Z,27.00
2022-09-04T19:00:08.297Z,26.90
2022-09-04T19:02:53.207Z,26.80
2022-09-04T19:05:24.383Z,26.70
2022-09-04T19:07:55.669Z,26.50
2022-09-04T19:10:26.516Z,26.40
2022-09-04T19:13:02.328Z,26.30
2022-09-04T19:15:55.804Z,26.20
2022-09-04T19:18:30.456Z,26.10
2022-09-04T19:21:23.400Z,26.00
2022-09-04T19:23:54.869Z,25.90
2022-09-04T19:26:26.360Z,25.80
2022-09-04T19:28:56.198Z,25.60
2022-09-04T19:31:35.083Z,25.50
2022-09-04T19:34:12.856Z,25.40
2022-09-04T19:36:44.828Z,25.20
2022-09-04T19:45:57.246Z,25.10
2022-09-04T19:46:16.922Z,25.00
2022-09-04T19:46:25.984Z,24.90
2022-09-04T19:48:20.676Z,24.70
2022-09-04T19:53:22.681Z,24.50
2022-09-04T19:53:51.881Z,24.40
2022-09-04T19:56:31.730Z,24.40
2022-09-04T19:59:05.593Z,24.30
2022-09-04T20:01:44.737Z,24.20
2022-09-04T20:04:24.521Z,24.10
2022-09-04T20:06:59.239Z,24.10
2022-09-04T20:09:33.246Z,24.10
2022-09-04T20:12:12.374Z,24.10
2022-09-04T20:14:43.116Z,24.10
2022-09-04T20:17:25.136Z,24.10
2022-09-04T20:19:57.203Z,24.00
2022-09-04T20:22:33.539Z,24.00
2022-09-04T20:25:26.614Z,24.10
2022-09-04T20:28:00.210Z,24.10
2022-09-04T20:30:29.953Z,24.00
2022-09-04T20:33:02.766Z,23.90
2022-09-04T20:35:41.449Z,24.00
2022-09-04T20:38:22.828Z,23.90
2022-09-04T20:40:55.376Z,23.90
2022-09-04T20:43:31.655Z,23.70
2022-09-04T20:49:35.317Z,23.50
2022-09-04T20:52:52.983Z,23.40
2022-09-04T20:53:00.393Z,23.40
2022-09-04T20:55:09.977Z,23.30
2022-09-04T21:02:48.600Z,23.30
2022-09-04T21:03:19.028Z,23.30
2022-09-04T21:03:56.448Z,23.30
2022-09-04T21:06:31.878Z,23.30
2022-09-04T21:09:17.863Z,23.30
2022-09-04T21:11:50.440Z,23.30
2022-09-04T21:14:27.331Z,23.20
2022-09-04T21:17:35.960Z,23.20
2022-09-04T21:20:23.708Z,23.20
2022-09-04T21:23:09.026Z,23.10
2022-09-04T21:25:47.910Z,23.10
2022-09-04T21:28:54.144Z,23.10
2022-09-04T21:31:49.652Z,23.00
2022-09-04T21:34:43.801Z,23.00
2022-09-04T21:37:19.220Z,23.00
2022-09-04T21:40:30.953Z,23.00
2022-09-04T21:43:40.153Z,22.90
2022-09-04T21:46:21.344Z,22.90
2022-09-04T21:48:57.772Z,22.90
2022-09-04T21:51:57.321Z,22.90
2022-09-04T21:54:37.773Z,22.80
2022-09-04T22:02:27.113Z,22.80
2022-09-04T22:02:43.089Z,22.70
2022-09-04T22:04:08.837Z,22.70
2022-09-04T22:10:11.952Z,22.70
2022-09-04T22:13:31.246Z,22.70
2022-09-04T22:13:38.858Z,22.60
2022-09-04T22:15:59.387Z,22.50
2022-09-04T22:18:47.443Z,22.50
2022-09-04T22:21:38.434Z,22.50
2022-09-04T22:24:36.316Z,22.50
2022-09-04T22:27:29.396Z,22.40
2022-09-04T22:30:08.090Z,22.40
2022-09-04T22:33:14.543Z,22.40
2022-09-04T22:36:06.808Z,22.40
2022-09-04T22:39:03.846Z,22.30
2022-09-04T22:41:48.577Z,22.30
2022-09-04T22:44:26.379Z,22.30
2022-09-04T22:47:27.273Z,22.20
2022-09-04T22:50:18.918Z,22.20
2022-09-04T22:53:04.872Z,22.20
2022-09-04T22:56:22.820Z,22.20
2022-09-04T22:59:20.470Z,22.20
2022-09-04T23:02:00.126Z,22.10
2022-09-04T23:04:58.993Z,22.10
2022-09-04T23:13:53.495Z,22.10
2022-09-04T23:13:56.345Z,22.00
2022-09-04T23:14:20.222Z,22.00
2022-09-04T23:17:01.208Z,22.00
2022-09-04T23:23:12.506Z,21.90
2022-09-04T23:26:35.820Z,21.90
2022-09-04T23:26:48.653Z,21.90
2022-09-04T23:29:32.072Z,21.90
2022-09-04T23:32:32.196Z,21.80
2022-09-04T23:35:15.577Z,21.80
2022-09-04T23:38:12.291Z,21.80
2022-09-04T23:40:42.895Z,21.80
2022-09-04T23:43:45.753Z,21.80
2022-09-04T23:46:49.471Z,21.80
2022-09-04T23:49:53.871Z,21.80
2022-09-04T23:52:31.948Z,21.90
2022-09-04T23:55:37.280Z,21.90
2022-09-04T23:58:52.251Z,22.00
